メインページ
METAR-TAF:

METAR-TAF

空港 :

クウェート国際空港

クウェート, クウェート

緯度: 29-13N, 経度: 047-59E, 海抜: 55m

現時点の気象観測

当レポートは38分前の06:00(UTC)に作成
無風
気温 17°C
湿度 82%
気圧 1019 hPa
視程: 3000m
高度4000ftの雲はほとんどない
高度8000ftの千切れ雲あり

METAR: OKBK 150600Z 00000KT 3000 BR FEW040 BKN080 17/14 Q1019 NOSIG

時間: 09:38 (06:38 UTC)

予報

当レポートは1時間53分前の04:45(UTC)に作成
予報は15日の 06時(UTC)から 16日の 12時(UTC)まで有効
変向風 3kt
視程: 3000m
15日の 07時(UTC)から 15日の 09時(UTC)まで徐々に
北東の風 10kt
視程: 7000m
高度4000ftの雲はほとんどない
高度10000ftの千切れ雲あり

TAF: OKBK 150445Z 1506/1612 VRB03KT 3000 BR NSC BECMG 1507/1509 05010KT 7000 FEW040 BKN100

4,000以上の空港の気象観測と天気予報(METAR報とTAF報)

利用可能な観測所は地図上に黄色い丸と赤い丸で示す。

丸の上にカーソルを重ねると観測所名を参照できる。

次にクリックすると気象観測と天気予報を参照できる。

マップの切り替え:黒色「×」印の緑ボタンをクリックして拡大、「-」印の緑ボタンをクリックして縮小、緑色の三角印をクリックして隣りの地図に切り替え


METAR-TAF: